sensor_id;sensor_type;location;lat;lon;timestamp;P1;durP1;ratioP1;P2;durP2;ratioP2
3613;SDS011;1821;50.936;6.854;2022-09-09T00:00:22;3.63;;;1.70;;
3613;SDS011;1821;50.936;6.854;2022-09-09T00:03:17;5.88;;;1.83;;
3613;SDS011;1821;50.936;6.854;2022-09-09T00:05:50;4.53;;;1.90;;
3613;SDS011;1821;50.936;6.854;2022-09-09T00:06:43;4.97;;;1.90;;
3613;SDS011;1821;50.936;6.854;2022-09-09T00:07:39;6.35;;;1.90;;
3613;SDS011;1821;50.936;6.854;2022-09-09T00:09:46;4.90;;;1.80;;
3613;SDS011;1821;50.936;6.854;2022-09-09T00:10:32;5.47;;;2.03;;
3613;SDS011;1821;50.936;6.854;2022-09-09T00:11:36;5.68;;;2.28;;
3613;SDS011;1821;50.936;6.854;2022-09-09T00:12:26;3.53;;;2.00;;
3613;SDS011;1821;50.936;6.854;2022-09-09T00:13:25;5.15;;;1.85;;
3613;SDS011;1821;50.936;6.854;2022-09-09T00:14:18;4.38;;;1.80;;
3613;SDS011;1821;50.936;6.854;2022-09-09T00:16:32;3.78;;;1.55;;
3613;SDS011;1821;50.936;6.854;2022-09-09T00:17:26;5.97;;;1.98;;
3613;SDS011;1821;50.936;6.854;2022-09-09T00:19:33;5.97;;;2.00;;
3613;SDS011;1821;50.936;6.854;2022-09-09T00:20:28;6.35;;;2.00;;
3613;SDS011;1821;50.936;6.854;2022-09-09T00:21:12;5.13;;;2.20;;
3613;SDS011;1821;50.936;6.854;2022-09-09T00:23:00;5.57;;;1.85;;
3613;SDS011;1821;50.936;6.854;2022-09-09T00:23:51;4.55;;;1.92;;
3613;SDS011;1821;50.936;6.854;2022-09-09T00:24:45;3.70;;;1.80;;
3613;SDS011;1821;50.936;6.854;2022-09-09T00:25:31;6.28;;;2.00;;
3613;SDS011;1821;50.936;6.854;2022-09-09T00:27:30;3.88;;;1.70;;
3613;SDS011;1821;50.936;6.854;2022-09-09T00:28:18;3.90;;;2.00;;
3613;SDS011;1821;50.936;6.854;2022-09-09T00:31:11;5.03;;;2.05;;
3613;SDS011;1821;50.936;6.854;2022-09-09T00:32:00;4.35;;;1.55;;
3613;SDS011;1821;50.936;6.854;2022-09-09T00:32:57;6.85;;;1.90;;
3613;SDS011;1821;50.936;6.854;2022-09-09T00:33:54;5.65;;;2.50;;
3613;SDS011;1821;50.936;6.854;2022-09-09T00:34:47;4.82;;;1.83;;
3613;SDS011;1821;50.936;6.854;2022-09-09T00:35:42;5.47;;;2.00;;
3613;SDS011;1821;50.936;6.854;2022-09-09T00:36:28;3.60;;;1.73;;
3613;SDS011;1821;50.936;6.854;2022-09-09T00:37:13;4.35;;;1.80;;
3613;SDS011;1821;50.936;6.854;2022-09-09T00:37:57;3.53;;;1.55;;
3613;SDS011;1821;50.936;6.854;2022-09-09T00:38:47;3.90;;;1.60;;
3613;SDS011;1821;50.936;6.854;2022-09-09T00:43:09;4.70;;;1.60;;
3613;SDS011;1821;50.936;6.854;2022-09-09T00:44:11;3.80;;;1.30;;
3613;SDS011;1821;50.936;6.854;2022-09-09T00:46:44;4.05;;;1.55;;
3613;SDS011;1821;50.936;6.854;2022-09-09T00:47:55;5.13;;;1.80;;
3613;SDS011;1821;50.936;6.854;2022-09-09T00:50:48;5.30;;;1.70;;
3613;SDS011;1821;50.936;6.854;2022-09-09T00:55:16;4.95;;;1.80;;
3613;SDS011;1821;50.936;6.854;2022-09-09T00:56:14;4.80;;;1.65;;
3613;SDS011;1821;50.936;6.854;2022-09-09T00:57:58;6.07;;;1.63;;
3613;SDS011;1821;50.936;6.854;2022-09-09T00:58:42;4.38;;;1.70;;
3613;SDS011;1821;50.936;6.854;2022-09-09T00:59:50;3.05;;;1.58;;
3613;SDS011;1821;50.936;6.854;2022-09-09T01:00:51;7.35;;;1.73;;
3613;SDS011;1821;50.936;6.854;2022-09-09T01:01:38;4.93;;;1.63;;
3613;SDS011;1821;50.936;6.854;2022-09-09T01:02:28;4.82;;;1.55;;
3613;SDS011;1821;50.936;6.854;2022-09-09T01:03:26;2.90;;;1.40;;
3613;SDS011;1821;50.936;6.854;2022-09-09T01:04:22;3.90;;;1.50;;
3613;SDS011;1821;50.936;6.854;2022-09-09T01:05:20;4.60;;;1.30;;
3613;SDS011;1821;50.936;6.854;2022-09-09T01:06:22;4.40;;;1.67;;
3613;SDS011;1821;50.936;6.854;2022-09-09T01:07:21;3.45;;;1.40;;
3613;SDS011;1821;50.936;6.854;2022-09-09T01:08:05;4.03;;;1.63;;
3613;SDS011;1821;50.936;6.854;2022-09-09T01:09:18;3.42;;;1.52;;
3613;SDS011;1821;50.936;6.854;2022-09-09T01:10:11;4.53;;;1.67;;
3613;SDS011;1821;50.936;6.854;2022-09-09T01:11:07;6.00;;;1.80;;
3613;SDS011;1821;50.936;6.854;2022-09-09T01:12:11;4.57;;;1.50;;
3613;SDS011;1821;50.936;6.854;2022-09-09T01:12:53;5.40;;;1.63;;
3613;SDS011;1821;50.936;6.854;2022-09-09T01:13:40;4.82;;;1.90;;
3613;SDS011;1821;50.936;6.854;2022-09-09T01:15:22;3.20;;;1.70;;
3613;SDS011;1821;50.936;6.854;2022-09-09T01:16:08;3.42;;;1.45;;
3613;SDS011;1821;50.936;6.854;2022-09-09T01:16:54;4.93;;;1.58;;
3613;SDS011;1821;50.936;6.854;2022-09-09T01:18:29;3.83;;;1.60;;
3613;SDS011;1821;50.936;6.854;2022-09-09T01:19:20;4.47;;;2.03;;
3613;SDS011;1821;50.936;6.854;2022-09-09T01:20:25;7.55;;;1.90;;
3613;SDS011;1821;50.936;6.854;2022-09-09T01:27:03;4.28;;;1.80;;
3613;SDS011;1821;50.936;6.854;2022-09-09T01:27:48;5.68;;;1.95;;
3613;SDS011;1821;50.936;6.854;2022-09-09T01:28:32;6.72;;;2.05;;
3613;SDS011;1821;50.936;6.854;2022-09-09T01:29:17;7.35;;;2.20;;
3613;SDS011;1821;50.936;6.854;2022-09-09T01:30:04;4.50;;;1.80;;
3613;SDS011;1821;50.936;6.854;2022-09-09T01:30:50;4.30;;;1.60;;
3613;SDS011;1821;50.936;6.854;2022-09-09T01:31:34;4.18;;;1.63;;
3613;SDS011;1821;50.936;6.854;2022-09-09T01:33:20;4.90;;;1.48;;
3613;SDS011;1821;50.936;6.854;2022-09-09T01:34:02;4.63;;;1.30;;
3613;SDS011;1821;50.936;6.854;2022-09-09T01:34:54;5.03;;;1.60;;
3613;SDS011;1821;50.936;6.854;2022-09-09T01:36:41;4.15;;;1.50;;
3613;SDS011;1821;50.936;6.854;2022-09-09T01:37:32;4.20;;;1.63;;
3613;SDS011;1821;50.936;6.854;2022-09-09T01:38:13;5.47;;;1.73;;
3613;SDS011;1821;50.936;6.854;2022-09-09T01:38:56;5.25;;;1.73;;
3613;SDS011;1821;50.936;6.854;2022-09-09T01:39:38;4.13;;;1.80;;
3613;SDS011;1821;50.936;6.854;2022-09-09T01:40:24;4.65;;;1.70;;
3613;SDS011;1821;50.936;6.854;2022-09-09T01:41:06;3.20;;;1.40;;
3613;SDS011;1821;50.936;6.854;2022-09-09T01:41:48;4.15;;;1.30;;
3613;SDS011;1821;50.936;6.854;2022-09-09T01:42:29;3.38;;;1.50;;
3613;SDS011;1821;50.936;6.854;2022-09-09T01:43:11;5.40;;;1.88;;
3613;SDS011;1821;50.936;6.854;2022-09-09T01:43:54;4.00;;;1.60;;
3613;SDS011;1821;50.936;6.854;2022-09-09T01:44:37;3.25;;;1.60;;
3613;SDS011;1821;50.936;6.854;2022-09-09T01:45:19;4.95;;;1.70;;
3613;SDS011;1821;50.936;6.854;2022-09-09T01:46:02;4.68;;;1.63;;
3613;SDS011;1821;50.936;6.854;2022-09-09T01:46:45;5.05;;;1.65;;
3613;SDS011;1821;50.936;6.854;2022-09-09T01:47:26;5.80;;;1.80;;
3613;SDS011;1821;50.936;6.854;2022-09-09T01:48:08;3.95;;;1.50;;
3613;SDS011;1821;50.936;6.854;2022-09-09T01:48:51;4.82;;;1.40;;
3613;SDS011;1821;50.936;6.854;2022-09-09T01:49:34;6.65;;;1.85;;
3613;SDS011;1821;50.936;6.854;2022-09-09T01:50:16;4.00;;;1.90;;
3613;SDS011;1821;50.936;6.854;2022-09-09T01:50:58;3.35;;;1.80;;
3613;SDS011;1821;50.936;6.854;2022-09-09T01:51:39;5.07;;;2.20;;
3613;SDS011;1821;50.936;6.854;2022-09-09T01:52:23;5.60;;;1.70;;
3613;SDS011;1821;50.936;6.854;2022-09-09T01:53:05;4.60;;;1.48;;
3613;SDS011;1821;50.936;6.854;2022-09-09T01:53:47;4.22;;;1.58;;
3613;SDS011;1821;50.936;6.854;2022-09-09T01:54:29;5.38;;;1.70;;
3613;SDS011;1821;50.936;6.854;2022-09-09T01:55:13;8.23;;;1.70;;
3613;SDS011;1821;50.936;6.854;2022-09-09T01:58:01;5.60;;;1.30;;
3613;SDS011;1821;50.936;6.854;2022-09-09T01:59:17;10.90;;;2.00;;
3613;SDS011;1821;50.936;6.854;2022-09-09T02:00:15;5.22;;;1.70;;
3613;SDS011;1821;50.936;6.854;2022-09-09T02:01:42;4.20;;;1.50;;
3613;SDS011;1821;50.936;6.854;2022-09-09T02:07:18;3.70;;;1.60;;
3613;SDS011;1821;50.936;6.854;2022-09-09T02:08:52;3.42;;;1.52;;
3613;SDS011;1821;50.936;6.854;2022-09-09T02:09:37;5.20;;;1.58;;
3613;SDS011;1821;50.936;6.854;2022-09-09T02:10:30;4.72;;;1.60;;
3613;SDS011;1821;50.936;6.854;2022-09-09T02:11:18;3.30;;;1.30;;
3613;SDS011;1821;50.936;6.854;2022-09-09T02:12:08;5.00;;;1.55;;
3613;SDS011;1821;50.936;6.854;2022-09-09T02:12:56;4.75;;;1.73;;
3613;SDS011;1821;50.936;6.854;2022-09-09T02:13:48;4.35;;;1.80;;
3613;SDS011;1821;50.936;6.854;2022-09-09T02:14:39;6.72;;;1.80;;
3613;SDS011;1821;50.936;6.854;2022-09-09T02:15:41;3.33;;;1.30;;
3613;SDS011;1821;50.936;6.854;2022-09-09T02:17:36;5.00;;;1.60;;
3613;SDS011;1821;50.936;6.854;2022-09-09T02:18:30;4.35;;;1.77;;
3613;SDS011;1821;50.936;6.854;2022-09-09T02:19:22;5.78;;;1.92;;
3613;SDS011;1821;50.936;6.854;2022-09-09T02:20:12;3.85;;;1.58;;
3613;SDS011;1821;50.936;6.854;2022-09-09T02:20:55;4.78;;;1.60;;
3613;SDS011;1821;50.936;6.854;2022-09-09T02:21:39;3.20;;;1.50;;
3613;SDS011;1821;50.936;6.854;2022-09-09T02:22:23;4.57;;;1.60;;
3613;SDS011;1821;50.936;6.854;2022-09-09T02:23:07;5.72;;;1.38;;
3613;SDS011;1821;50.936;6.854;2022-09-09T02:23:51;5.00;;;1.40;;
3613;SDS011;1821;50.936;6.854;2022-09-09T02:24:35;4.40;;;1.50;;
3613;SDS011;1821;50.936;6.854;2022-09-09T02:25:20;4.25;;;1.50;;
3613;SDS011;1821;50.936;6.854;2022-09-09T02:26:04;4.38;;;1.40;;
3613;SDS011;1821;50.936;6.854;2022-09-09T02:26:47;5.60;;;1.50;;
3613;SDS011;1821;50.936;6.854;2022-09-09T02:27:33;4.78;;;1.40;;
3613;SDS011;1821;50.936;6.854;2022-09-09T02:28:15;4.30;;;1.50;;
3613;SDS011;1821;50.936;6.854;2022-09-09T02:28:59;5.70;;;1.58;;
3613;SDS011;1821;50.936;6.854;2022-09-09T02:29:43;5.10;;;1.80;;
3613;SDS011;1821;50.936;6.854;2022-09-09T02:30:26;4.43;;;1.60;;
3613;SDS011;1821;50.936;6.854;2022-09-09T02:31:11;4.90;;;2.08;;
3613;SDS011;1821;50.936;6.854;2022-09-09T02:31:57;4.10;;;1.40;;
3613;SDS011;1821;50.936;6.854;2022-09-09T02:32:44;3.92;;;1.35;;
3613;SDS011;1821;50.936;6.854;2022-09-09T02:33:33;5.10;;;1.50;;
3613;SDS011;1821;50.936;6.854;2022-09-09T02:34:20;4.20;;;1.38;;
3613;SDS011;1821;50.936;6.854;2022-09-09T02:35:06;6.00;;;1.60;;
3613;SDS011;1821;50.936;6.854;2022-09-09T02:35:52;4.00;;;1.42;;
3613;SDS011;1821;50.936;6.854;2022-09-09T02:36:38;4.63;;;1.58;;
3613;SDS011;1821;50.936;6.854;2022-09-09T02:37:23;4.15;;;1.63;;
3613;SDS011;1821;50.936;6.854;2022-09-09T02:38:13;4.70;;;1.92;;
3613;SDS011;1821;50.936;6.854;2022-09-09T02:38:57;6.38;;;2.15;;
3613;SDS011;1821;50.936;6.854;2022-09-09T02:39:38;5.05;;;1.73;;
3613;SDS011;1821;50.936;6.854;2022-09-09T02:40:20;4.65;;;1.58;;
3613;SDS011;1821;50.936;6.854;2022-09-09T02:41:02;3.50;;;1.50;;
3613;SDS011;1821;50.936;6.854;2022-09-09T02:41:45;3.88;;;1.40;;
3613;SDS011;1821;50.936;6.854;2022-09-09T02:42:26;6.90;;;1.80;;
3613;SDS011;1821;50.936;6.854;2022-09-09T02:43:08;5.72;;;1.90;;
3613;SDS011;1821;50.936;6.854;2022-09-09T02:43:50;8.05;;;1.90;;
3613;SDS011;1821;50.936;6.854;2022-09-09T02:44:31;5.95;;;1.70;;
3613;SDS011;1821;50.936;6.854;2022-09-09T02:45:15;6.00;;;1.60;;
3613;SDS011;1821;50.936;6.854;2022-09-09T02:46:03;3.72;;;1.50;;
3613;SDS011;1821;50.936;6.854;2022-09-09T02:49:06;5.28;;;1.90;;
3613;SDS011;1821;50.936;6.854;2022-09-09T02:50:39;3.17;;;1.50;;
3613;SDS011;1821;50.936;6.854;2022-09-09T02:51:40;4.20;;;1.60;;
3613;SDS011;1821;50.936;6.854;2022-09-09T02:52:51;5.90;;;1.60;;
3613;SDS011;1821;50.936;6.854;2022-09-09T02:53:44;6.50;;;2.00;;
3613;SDS011;1821;50.936;6.854;2022-09-09T02:54:37;6.97;;;2.10;;
3613;SDS011;1821;50.936;6.854;2022-09-09T02:55:54;4.10;;;1.70;;
3613;SDS011;1821;50.936;6.854;2022-09-09T02:57:14;3.30;;;1.63;;
3613;SDS011;1821;50.936;6.854;2022-09-09T02:58:00;4.35;;;1.90;;
3613;SDS011;1821;50.936;6.854;2022-09-09T02:58:47;3.60;;;1.70;;
3613;SDS011;1821;50.936;6.854;2022-09-09T02:59:30;4.65;;;1.70;;
3613;SDS011;1821;50.936;6.854;2022-09-09T03:00:12;6.55;;;1.85;;
3613;SDS011;1821;50.936;6.854;2022-09-09T03:00:54;4.70;;;1.88;;
3613;SDS011;1821;50.936;6.854;2022-09-09T03:01:38;4.05;;;1.85;;
3613;SDS011;1821;50.936;6.854;2022-09-09T03:02:21;5.20;;;2.13;;
3613;SDS011;1821;50.936;6.854;2022-09-09T03:03:03;3.38;;;2.00;;
3613;SDS011;1821;50.936;6.854;2022-09-09T03:03:46;5.10;;;1.90;;
3613;SDS011;1821;50.936;6.854;2022-09-09T03:04:27;5.75;;;2.00;;
3613;SDS011;1821;50.936;6.854;2022-09-09T03:05:10;4.80;;;1.80;;
3613;SDS011;1821;50.936;6.854;2022-09-09T03:05:54;5.68;;;1.95;;
3613;SDS011;1821;50.936;6.854;2022-09-09T03:06:35;7.05;;;2.50;;
3613;SDS011;1821;50.936;6.854;2022-09-09T03:07:20;5.03;;;2.30;;
3613;SDS011;1821;50.936;6.854;2022-09-09T03:08:03;5.80;;;2.15;;
3613;SDS011;1821;50.936;6.854;2022-09-09T03:08:46;4.43;;;1.75;;
3613;SDS011;1821;50.936;6.854;2022-09-09T03:09:30;5.63;;;1.90;;
3613;SDS011;1821;50.936;6.854;2022-09-09T03:10:12;5.82;;;2.00;;
3613;SDS011;1821;50.936;6.854;2022-09-09T03:10:54;4.95;;;1.80;;
3613;SDS011;1821;50.936;6.854;2022-09-09T03:11:37;5.10;;;1.90;;
3613;SDS011;1821;50.936;6.854;2022-09-09T03:12:19;4.28;;;1.80;;
3613;SDS011;1821;50.936;6.854;2022-09-09T03:13:01;4.85;;;1.80;;
3613;SDS011;1821;50.936;6.854;2022-09-09T03:13:43;5.22;;;1.90;;
3613;SDS011;1821;50.936;6.854;2022-09-09T03:14:25;8.77;;;2.40;;
3613;SDS011;1821;50.936;6.854;2022-09-09T03:15:07;8.93;;;2.50;;
3613;SDS011;1821;50.936;6.854;2022-09-09T03:15:49;5.60;;;2.58;;
3613;SDS011;1821;50.936;6.854;2022-09-09T03:16:30;5.65;;;2.13;;
3613;SDS011;1821;50.936;6.854;2022-09-09T03:17:14;5.63;;;2.10;;
3613;SDS011;1821;50.936;6.854;2022-09-09T03:17:56;5.28;;;1.90;;
3613;SDS011;1821;50.936;6.854;2022-09-09T03:18:38;7.75;;;2.10;;
3613;SDS011;1821;50.936;6.854;2022-09-09T03:19:20;7.07;;;2.10;;
3613;SDS011;1821;50.936;6.854;2022-09-09T03:20:03;7.97;;;2.17;;
3613;SDS011;1821;50.936;6.854;2022-09-09T03:20:45;4.75;;;1.77;;
3613;SDS011;1821;50.936;6.854;2022-09-09T03:21:29;4.40;;;1.60;;
3613;SDS011;1821;50.936;6.854;2022-09-09T03:22:11;5.45;;;1.92;;
3613;SDS011;1821;50.936;6.854;2022-09-09T03:22:54;6.45;;;2.30;;
3613;SDS011;1821;50.936;6.854;2022-09-09T03:23:37;7.65;;;2.55;;
3613;SDS011;1821;50.936;6.854;2022-09-09T03:24:18;6.63;;;2.28;;
3613;SDS011;1821;50.936;6.854;2022-09-09T03:25:00;6.28;;;2.10;;
3613;SDS011;1821;50.936;6.854;2022-09-09T03:25:47;5.30;;;2.08;;
3613;SDS011;1821;50.936;6.854;2022-09-09T03:26:29;6.05;;;2.20;;
3613;SDS011;1821;50.936;6.854;2022-09-09T03:27:11;7.30;;;2.10;;
3613;SDS011;1821;50.936;6.854;2022-09-09T03:27:53;8.65;;;2.70;;
3613;SDS011;1821;50.936;6.854;2022-09-09T03:28:36;4.60;;;2.03;;
3613;SDS011;1821;50.936;6.854;2022-09-09T03:29:18;6.10;;;2.20;;
3613;SDS011;1821;50.936;6.854;2022-09-09T03:29:59;6.43;;;1.80;;
3613;SDS011;1821;50.936;6.854;2022-09-09T03:30:41;9.25;;;2.13;;
3613;SDS011;1821;50.936;6.854;2022-09-09T03:31:23;6.40;;;2.10;;
3613;SDS011;1821;50.936;6.854;2022-09-09T03:32:05;5.68;;;2.13;;
3613;SDS011;1821;50.936;6.854;2022-09-09T03:32:47;6.85;;;2.60;;
3613;SDS011;1821;50.936;6.854;2022-09-09T03:33:29;6.03;;;2.35;;
3613;SDS011;1821;50.936;6.854;2022-09-09T03:34:11;5.72;;;1.80;;
3613;SDS011;1821;50.936;6.854;2022-09-09T03:34:54;6.65;;;2.10;;
3613;SDS011;1821;50.936;6.854;2022-09-09T03:35:35;5.93;;;2.00;;
3613;SDS011;1821;50.936;6.854;2022-09-09T03:36:17;7.22;;;2.30;;
3613;SDS011;1821;50.936;6.854;2022-09-09T03:36:58;4.43;;;1.90;;
3613;SDS011;1821;50.936;6.854;2022-09-09T03:37:41;3.53;;;1.73;;
3613;SDS011;1821;50.936;6.854;2022-09-09T03:38:25;5.70;;;1.90;;
3613;SDS011;1821;50.936;6.854;2022-09-09T03:39:07;7.30;;;1.80;;
3613;SDS011;1821;50.936;6.854;2022-09-09T03:39:48;6.93;;;1.98;;
3613;SDS011;1821;50.936;6.854;2022-09-09T03:40:30;7.20;;;2.00;;
3613;SDS011;1821;50.936;6.854;2022-09-09T03:41:12;10.13;;;2.20;;
3613;SDS011;1821;50.936;6.854;2022-09-09T03:41:53;10.88;;;2.50;;
3613;SDS011;1821;50.936;6.854;2022-09-09T03:42:35;5.30;;;2.15;;
3613;SDS011;1821;50.936;6.854;2022-09-09T03:43:18;4.78;;;1.80;;
3613;SDS011;1821;50.936;6.854;2022-09-09T03:44:00;5.93;;;1.73;;
3613;SDS011;1821;50.936;6.854;2022-09-09T03:44:42;6.13;;;1.60;;
3613;SDS011;1821;50.936;6.854;2022-09-09T03:45:27;6.82;;;2.10;;
3613;SDS011;1821;50.936;6.854;2022-09-09T03:46:09;4.60;;;2.00;;
3613;SDS011;1821;50.936;6.854;2022-09-09T03:46:50;6.10;;;2.10;;
3613;SDS011;1821;50.936;6.854;2022-09-09T03:47:32;6.07;;;2.00;;
3613;SDS011;1821;50.936;6.854;2022-09-09T03:48:14;5.53;;;2.15;;
3613;SDS011;1821;50.936;6.854;2022-09-09T03:48:57;7.25;;;2.10;;
3613;SDS011;1821;50.936;6.854;2022-09-09T03:49:39;4.53;;;1.80;;
3613;SDS011;1821;50.936;6.854;2022-09-09T03:50:20;6.45;;;1.90;;
3613;SDS011;1821;50.936;6.854;2022-09-09T03:51:02;8.00;;;2.40;;
3613;SDS011;1821;50.936;6.854;2022-09-09T03:51:44;5.47;;;2.20;;
3613;SDS011;1821;50.936;6.854;2022-09-09T03:52:26;11.50;;;2.57;;
3613;SDS011;1821;50.936;6.854;2022-09-09T03:53:08;5.80;;;2.17;;
3613;SDS011;1821;50.936;6.854;2022-09-09T03:53:49;5.32;;;2.10;;
3613;SDS011;1821;50.936;6.854;2022-09-09T03:54:31;5.60;;;2.47;;
3613;SDS011;1821;50.936;6.854;2022-09-09T03:55:13;5.20;;;2.00;;
3613;SDS011;1821;50.936;6.854;2022-09-09T03:55:55;9.50;;;2.20;;
3613;SDS011;1821;50.936;6.854;2022-09-09T03:56:40;6.05;;;2.10;;
3613;SDS011;1821;50.936;6.854;2022-09-09T03:57:22;10.68;;;2.58;;
3613;SDS011;1821;50.936;6.854;2022-09-09T03:58:04;5.38;;;1.73;;
3613;SDS011;1821;50.936;6.854;2022-09-09T03:58:46;6.55;;;2.20;;
3613;SDS011;1821;50.936;6.854;2022-09-09T03:59:27;10.43;;;2.50;;
3613;SDS011;1821;50.936;6.854;2022-09-09T04:00:09;10.95;;;2.25;;
3613;SDS011;1821;50.936;6.854;2022-09-09T04:00:58;6.00;;;1.90;;
3613;SDS011;1821;50.936;6.854;2022-09-09T04:01:41;4.38;;;1.83;;
3613;SDS011;1821;50.936;6.854;2022-09-09T04:02:23;3.88;;;1.70;;
3613;SDS011;1821;50.936;6.854;2022-09-09T04:03:05;4.13;;;1.90;;
3613;SDS011;1821;50.936;6.854;2022-09-09T04:03:47;4.30;;;2.00;;
3613;SDS011;1821;50.936;6.854;2022-09-09T04:04:28;7.38;;;2.00;;
3613;SDS011;1821;50.936;6.854;2022-09-09T04:05:10;8.50;;;2.30;;
3613;SDS011;1821;50.936;6.854;2022-09-09T04:05:52;7.50;;;2.00;;
3613;SDS011;1821;50.936;6.854;2022-09-09T04:06:34;7.60;;;2.00;;
3613;SDS011;1821;50.936;6.854;2022-09-09T04:07:16;5.43;;;1.70;;
3613;SDS011;1821;50.936;6.854;2022-09-09T04:07:58;4.85;;;1.83;;
3613;SDS011;1821;50.936;6.854;2022-09-09T04:08:39;3.80;;;1.60;;
3613;SDS011;1821;50.936;6.854;2022-09-09T04:09:22;6.00;;;1.90;;
3613;SDS011;1821;50.936;6.854;2022-09-09T04:10:04;6.57;;;1.80;;
3613;SDS011;1821;50.936;6.854;2022-09-09T04:10:47;8.88;;;2.20;;
3613;SDS011;1821;50.936;6.854;2022-09-09T04:11:31;5.88;;;1.75;;
3613;SDS011;1821;50.936;6.854;2022-09-09T04:12:12;6.13;;;1.60;;
3613;SDS011;1821;50.936;6.854;2022-09-09T04:12:54;5.53;;;1.90;;
3613;SDS011;1821;50.936;6.854;2022-09-09T04:13:37;5.75;;;1.90;;
3613;SDS011;1821;50.936;6.854;2022-09-09T04:14:22;12.05;;;2.15;;
3613;SDS011;1821;50.936;6.854;2022-09-09T04:15:04;7.05;;;1.98;;
3613;SDS011;1821;50.936;6.854;2022-09-09T04:15:53;4.78;;;1.83;;
3613;SDS011;1821;50.936;6.854;2022-09-09T04:16:36;5.53;;;2.20;;
3613;SDS011;1821;50.936;6.854;2022-09-09T04:17:18;4.20;;;2.10;;
3613;SDS011;1821;50.936;6.854;2022-09-09T04:18:00;5.03;;;2.20;;
3613;SDS011;1821;50.936;6.854;2022-09-09T04:18:42;8.02;;;2.30;;
3613;SDS011;1821;50.936;6.854;2022-09-09T04:19:24;6.60;;;2.00;;
3613;SDS011;1821;50.936;6.854;2022-09-09T04:20:06;4.07;;;1.80;;
3613;SDS011;1821;50.936;6.854;2022-09-09T04:20:52;4.90;;;1.70;;
3613;SDS011;1821;50.936;6.854;2022-09-09T04:21:34;6.40;;;2.13;;
3613;SDS011;1821;50.936;6.854;2022-09-09T04:22:17;5.18;;;2.10;;
3613;SDS011;1821;50.936;6.854;2022-09-09T04:22:58;6.00;;;2.03;;
3613;SDS011;1821;50.936;6.854;2022-09-09T04:23:40;7.53;;;2.30;;
3613;SDS011;1821;50.936;6.854;2022-09-09T04:24:22;6.90;;;2.40;;
3613;SDS011;1821;50.936;6.854;2022-09-09T04:25:04;6.03;;;2.40;;
3613;SDS011;1821;50.936;6.854;2022-09-09T04:25:47;8.77;;;2.33;;
3613;SDS011;1821;50.936;6.854;2022-09-09T04:26:31;6.93;;;2.17;;
3613;SDS011;1821;50.936;6.854;2022-09-09T04:27:13;6.35;;;2.55;;
3613;SDS011;1821;50.936;6.854;2022-09-09T04:27:55;10.90;;;2.35;;
3613;SDS011;1821;50.936;6.854;2022-09-09T04:28:37;7.97;;;2.10;;
3613;SDS011;1821;50.936;6.854;2022-09-09T04:29:19;8.60;;;2.42;;
3613;SDS011;1821;50.936;6.854;2022-09-09T04:30:01;6.95;;;2.55;;
3613;SDS011;1821;50.936;6.854;2022-09-09T04:30:43;6.75;;;2.30;;
3613;SDS011;1821;50.936;6.854;2022-09-09T04:31:25;6.85;;;2.40;;
3613;SDS011;1821;50.936;6.854;2022-09-09T04:32:07;7.45;;;1.92;;
3613;SDS011;1821;50.936;6.854;2022-09-09T04:32:48;6.85;;;2.10;;
3613;SDS011;1821;50.936;6.854;2022-09-09T04:33:30;4.47;;;1.95;;
3613;SDS011;1821;50.936;6.854;2022-09-09T04:34:17;5.40;;;2.13;;
3613;SDS011;1821;50.936;6.854;2022-09-09T04:34:58;5.43;;;1.98;;
3613;SDS011;1821;50.936;6.854;2022-09-09T04:35:44;7.03;;;2.25;;
3613;SDS011;1821;50.936;6.854;2022-09-09T04:36:28;7.45;;;2.28;;
3613;SDS011;1821;50.936;6.854;2022-09-09T04:37:09;7.30;;;2.50;;
3613;SDS011;1821;50.936;6.854;2022-09-09T04:37:51;6.57;;;2.60;;
3613;SDS011;1821;50.936;6.854;2022-09-09T04:38:33;8.48;;;2.35;;
3613;SDS011;1821;50.936;6.854;2022-09-09T04:39:15;5.47;;;2.08;;
3613;SDS011;1821;50.936;6.854;2022-09-09T04:39:56;7.07;;;2.22;;
3613;SDS011;1821;50.936;6.854;2022-09-09T04:40:38;8.10;;;2.78;;
3613;SDS011;1821;50.936;6.854;2022-09-09T04:41:23;5.72;;;2.45;;
3613;SDS011;1821;50.936;6.854;2022-09-09T04:42:05;4.85;;;2.00;;
3613;SDS011;1821;50.936;6.854;2022-09-09T04:42:48;5.25;;;1.90;;
3613;SDS011;1821;50.936;6.854;2022-09-09T04:43:30;7.63;;;2.60;;
3613;SDS011;1821;50.936;6.854;2022-09-09T04:44:12;6.28;;;2.20;;
3613;SDS011;1821;50.936;6.854;2022-09-09T04:44:54;7.10;;;2.08;;
3613;SDS011;1821;50.936;6.854;2022-09-09T04:45:36;5.95;;;2.20;;
3613;SDS011;1821;50.936;6.854;2022-09-09T04:46:18;5.85;;;2.20;;
3613;SDS011;1821;50.936;6.854;2022-09-09T04:47:00;4.35;;;1.95;;
3613;SDS011;1821;50.936;6.854;2022-09-09T04:47:42;5.00;;;1.90;;
3613;SDS011;1821;50.936;6.854;2022-09-09T04:48:24;5.07;;;2.00;;
3613;SDS011;1821;50.936;6.854;2022-09-09T04:49:06;5.65;;;2.13;;
3613;SDS011;1821;50.936;6.854;2022-09-09T04:49:53;6.50;;;2.42;;
3613;SDS011;1821;50.936;6.854;2022-09-09T04:50:35;6.13;;;2.22;;
3613;SDS011;1821;50.936;6.854;2022-09-09T04:51:17;5.75;;;2.78;;
3613;SDS011;1821;50.936;6.854;2022-09-09T04:51:59;4.60;;;2.00;;
3613;SDS011;1821;50.936;6.854;2022-09-09T04:52:40;5.47;;;2.30;;
3613;SDS011;1821;50.936;6.854;2022-09-09T04:53:22;8.55;;;2.42;;
3613;SDS011;1821;50.936;6.854;2022-09-09T04:54:04;6.97;;;2.40;;
3613;SDS011;1821;50.936;6.854;2022-09-09T04:54:46;6.30;;;1.90;;
3613;SDS011;1821;50.936;6.854;2022-09-09T04:55:29;7.05;;;2.08;;
3613;SDS011;1821;50.936;6.854;2022-09-09T04:56:12;6.25;;;2.00;;
3613;SDS011;1821;50.936;6.854;2022-09-09T04:56:55;6.47;;;2.10;;
3613;SDS011;1821;50.936;6.854;2022-09-09T04:57:37;7.43;;;2.35;;
3613;SDS011;1821;50.936;6.854;2022-09-09T04:58:18;5.40;;;2.38;;
3613;SDS011;1821;50.936;6.854;2022-09-09T04:59:02;6.82;;;2.45;;
3613;SDS011;1821;50.936;6.854;2022-09-09T04:59:44;5.82;;;2.10;;
3613;SDS011;1821;50.936;6.854;2022-09-09T05:00:26;7.22;;;2.20;;
3613;SDS011;1821;50.936;6.854;2022-09-09T05:01:09;7.05;;;2.00;;
3613;SDS011;1821;50.936;6.854;2022-09-09T05:01:53;6.22;;;2.13;;
3613;SDS011;1821;50.936;6.854;2022-09-09T05:02:39;6.05;;;2.10;;
3613;SDS011;1821;50.936;6.854;2022-09-09T05:03:21;5.07;;;1.50;;
3613;SDS011;1821;50.936;6.854;2022-09-09T05:04:03;8.23;;;2.00;;
3613;SDS011;1821;50.936;6.854;2022-09-09T05:04:44;6.47;;;2.10;;
3613;SDS011;1821;50.936;6.854;2022-09-09T05:05:26;4.50;;;1.90;;
3613;SDS011;1821;50.936;6.854;2022-09-09T05:06:10;5.90;;;2.00;;
3613;SDS011;1821;50.936;6.854;2022-09-09T05:06:53;6.40;;;2.15;;
3613;SDS011;1821;50.936;6.854;2022-09-09T05:07:35;8.07;;;1.90;;
3613;SDS011;1821;50.936;6.854;2022-09-09T05:08:18;6.35;;;1.80;;
3613;SDS011;1821;50.936;6.854;2022-09-09T05:08:59;10.20;;;2.60;;
3613;SDS011;1821;50.936;6.854;2022-09-09T05:09:41;5.50;;;2.53;;
3613;SDS011;1821;50.936;6.854;2022-09-09T05:10:24;4.95;;;2.00;;
3613;SDS011;1821;50.936;6.854;2022-09-09T05:12:06;3.72;;;1.85;;
3613;SDS011;1821;50.936;6.854;2022-09-09T05:12:52;5.22;;;2.40;;
3613;SDS011;1821;50.936;6.854;2022-09-09T05:13:35;4.53;;;2.10;;
3613;SDS011;1821;50.936;6.854;2022-09-09T05:14:21;6.07;;;1.90;;
3613;SDS011;1821;50.936;6.854;2022-09-09T05:15:03;5.60;;;1.80;;
3613;SDS011;1821;50.936;6.854;2022-09-09T05:15:52;6.47;;;2.05;;
3613;SDS011;1821;50.936;6.854;2022-09-09T05:16:34;5.18;;;2.22;;
3613;SDS011;1821;50.936;6.854;2022-09-09T05:17:16;6.88;;;2.25;;
3613;SDS011;1821;50.936;6.854;2022-09-09T05:18:00;8.07;;;3.10;;
3613;SDS011;1821;50.936;6.854;2022-09-09T05:18:43;4.63;;;2.00;;
3613;SDS011;1821;50.936;6.854;2022-09-09T05:19:27;3.67;;;1.48;;
3613;SDS011;1821;50.936;6.854;2022-09-09T05:20:08;5.88;;;1.80;;
3613;SDS011;1821;50.936;6.854;2022-09-09T05:20:59;6.40;;;2.17;;
3613;SDS011;1821;50.936;6.854;2022-09-09T05:21:42;5.13;;;2.00;;
3613;SDS011;1821;50.936;6.854;2022-09-09T05:22:23;6.53;;;2.17;;
3613;SDS011;1821;50.936;6.854;2022-09-09T05:23:05;4.57;;;1.88;;
3613;SDS011;1821;50.936;6.854;2022-09-09T05:23:46;6.13;;;1.92;;
3613;SDS011;1821;50.936;6.854;2022-09-09T05:24:28;7.50;;;2.10;;
3613;SDS011;1821;50.936;6.854;2022-09-09T05:25:14;8.57;;;2.20;;
3613;SDS011;1821;50.936;6.854;2022-09-09T05:25:56;5.05;;;2.00;;
3613;SDS011;1821;50.936;6.854;2022-09-09T05:26:38;7.25;;;2.25;;
3613;SDS011;1821;50.936;6.854;2022-09-09T05:27:20;7.63;;;2.10;;
3613;SDS011;1821;50.936;6.854;2022-09-09T05:28:02;6.45;;;1.75;;
3613;SDS011;1821;50.936;6.854;2022-09-09T05:28:44;6.10;;;2.00;;